Stations météo

réclame
Mon MeteoGroup
Fichtelberg, Allemagne (10578): Température de l'air & dewpoint: 13.06.2018 20:00:00 - 19.06.2018 20:00:00 (CEST)Fichtelberg, Allemagne (10578): Température de l'air 5cm & Température de l'air -5cm: 13.06.2018 20:00:00 - 19.06.2018 20:00:00 (CEST)Fichtelberg, Allemagne (10578): Température de l'air -20cm & Température de l'air -100cm: 13.06.2018 20:00:00 - 19.06.2018 20:00:00 (CEST)Fichtelberg, Allemagne (10578): Vitesse du vent & gusts: 13.06.2018 20:00:00 - 19.06.2018 20:00:00 (CEST)Fichtelberg, Allemagne (10578): Direction du vent: 13.06.2018 20:00:00 - 19.06.2018 20:00:00 (CEST)Fichtelberg, Allemagne (10578): visibility: 13.06.2018 20:00:00 - 19.06.2018 20:00:00 (CEST)Fichtelberg, Allemagne (10578): Ensoleillement: 13.06.2018 20:00:00 - 19.06.2018 20:00:00 (CEST)Fichtelberg, Allemagne (10578): Quantités de précipitations: 13.06.2018 20:00:00 - 19.06.2018 20:00:00 (CEST)
Date & Time tt [°C] td [°C] tt 5cm [°C] tt -5cm [°C] tt -20cm [°C] tt -100cm [°C] ff [km/h] ff [knt] fx [km/h] fx [knt] dd vv [km] sd [min] rr [mm]
19.06.2018 20:00:00 13,7 11,1 13,7 17,0 15,0 11,4 16 8 22 12 WNW 50 0 -
19.06.2018 19:00:00 14,3 11,1 14,4 18,0 14,8 11,4 18 10 29 15 WNW 50 0 -
19.06.2018 18:00:00 14,9 10,8 15,3 19,2 14,5 11,4 22 12 31 17 W 50 8 -
19.06.2018 17:00:00 16,1 11,7 18,6 18,8 14,3 11,4 21 12 36 19 W 50 9 -
19.06.2018 16:00:00 15,1 11,1 17,0 18,1 14,0 11,4 27 15 36 19 W 50 1 -
19.06.2018 15:00:00 15,4 12,0 17,5 17,7 13,8 11,4 24 13 34 18 W 50 1 -
19.06.2018 14:00:00 15,0 11,3 16,4 17,6 13,6 11,3 18 10 29 16 W 50 8 -
19.06.2018 13:00:00 14,7 10,6 16,4 16,5 13,4 11,3 22 12 28 15 W 50 6 -
19.06.2018 12:00:00 13,5 10,6 14,1 15,5 13,3 11,3 20 11 29 15 W 30 4 -
19.06.2018 11:00:00 13,8 11,3 17,8 14,0 13,3 11,3 18 10 34 18 SW 15 7 -
19.06.2018 10:00:00 11,9 10,8 12,3 13,5 13,2 11,3 27 15 41 22 W 15 1 -
19.06.2018 09:00:00 12,5 10,9 13,3 12,8 13,3 11,3 21 11 28 15 W 50 2 0,0
19.06.2018 08:00:00 11,2 10,2 11,5 11,7 13,4 11,3 19 10 34 18 W 50 3 -
19.06.2018 07:00:00 10,2 9,3 10,1 11,0 13,6 11,3 25 14 32 17 W 45 26 -
19.06.2018 06:00:00 9,5 8,9 9,1 10,6 13,9 11,3 23 12 35 19 W 45 0 -
19.06.2018 05:00:00 8,8 8,2 7,8 10,6 14,1 11,3 27 14 34 18 W 40 0 -
19.06.2018 04:00:00 8,9 8,1 7,9 11,0 14,3 11,3 28 15 33 18 W 50 0 -
19.06.2018 03:00:00 9,1 7,9 7,8 11,4 14,5 11,3 26 14 31 17 W 60 0 -
19.06.2018 02:00:00 9,3 7,6 7,9 12,0 14,8 11,3 28 15 34 18 W 60 0 -
19.06.2018 01:00:00 9,7 8,1 8,2 12,6 15,0 11,3 22 12 24 13 W 70 0 -
19.06.2018 00:00:00 10,2 8,5 8,8 13,1 15,1 11,3 20 11 23 13 W 80 0 -
18.06.2018 23:00:00 10,4 8,5 8,8 14,0 15,3 11,3 22 12 23 12 W 80 0 -
18.06.2018 22:00:00 10,8 8,7 9,3 15,2 15,3 11,3 19 11 21 11 W 82 0 -
18.06.2018 21:00:00 12,2 9,5 11,6 16,5 15,2 11,3 18 10 22 12 W 82 6 -
18.06.2018 20:00:00 12,9 9,5 12,1 17,6 15,1 11,3 15 8 18 10 W 82 7 -
18.06.2018 19:00:00 13,7 9,6 14,9 18,2 14,9 11,3 14 8 24 13 W 82 0 -
18.06.2018 18:00:00 14,2 9,0 15,6 18,7 14,7 11,3 17 9 29 16 W 70 8 -
18.06.2018 17:00:00 13,7 9,4 15,9 18,5 14,5 11,3 13 7 29 16 WNW 55 1 -
18.06.2018 16:00:00 13,4 8,9 14,8 19,0 14,2 11,3 21 11 31 17 W 55 17 -
18.06.2018 15:00:00 13,8 9,1 16,3 18,2 14,0 11,3 16 9 32 18 WNW 40 23 -
18.06.2018 14:00:00 13,5 8,9 18,5 16,4 13,8 11,3 18 10 35 19 W 45 7 -
18.06.2018 13:00:00 12,1 7,0 13,0 16,4 13,7 11,3 27 15 37 20 W 45 8 -
18.06.2018 12:00:00 11,2 8,2 12,2 15,7 13,5 11,3 23 13 33 18 W 45 11 -
18.06.2018 11:00:00 11,2 8,5 11,5 15,6 13,4 11,3 16 9 31 17 W 40 9 -
18.06.2018 10:00:00 12,7 8,7 16,3 14,9 13,3 11,3 21 12 32 17 WNW 60 43 -
18.06.2018 09:00:00 12,4 8,4 16,0 13,1 13,4 11,3 16 8 22 12 W 70 60 1,1
18.06.2018 08:00:00 11,9 7,6 13,4 11,5 13,5 11,3 14 8 19 10 W 70 60 -
18.06.2018 07:00:00 10,2 7,6 10,9 10,7 13,7 11,3 11 6 17 9 WSW 70 31 -
18.06.2018 06:00:00 8,9 6,6 7,7 10,3 14,0 11,3 16 9 21 12 W 70 0 -
18.06.2018 05:00:00 9,0 5,9 7,3 10,5 14,2 11,3 19 11 22 12 W 70 0 -
18.06.2018 04:00:00 9,0 6,3 6,9 10,9 14,5 11,3 19 11 21 11 W 70 0 -
18.06.2018 03:00:00 9,1 6,2 6,7 11,3 14,7 11,3 13 7 16 9 W 70 0 -
18.06.2018 02:00:00 9,9 6,3 7,9 11,6 15,0 11,3 10 5 20 11 WNW 70 0 -
18.06.2018 01:00:00 9,8 6,8 7,9 12,1 15,2 11,3 18 10 25 14 NNW 70 0 -
18.06.2018 00:00:00 9,9 7,9 8,3 12,9 15,5 11,3 23 12 27 14 WNW 70 0 -
17.06.2018 23:00:00 10,3 8,3 8,7 13,7 15,7 11,3 21 11 25 13 NW 50 0 -
17.06.2018 22:00:00 10,6 9,3 9,5 14,6 15,8 11,3 23 13 31 17 NW 50 0 -
17.06.2018 21:00:00 11,0 10,2 10,3 15,8 15,9 11,3 24 13 38 21 NW 30 0 -
17.06.2018 20:00:00 11,8 10,8 11,3 16,9 15,9 11,3 28 15 42 23 NW 23 8 -
17.06.2018 19:00:00 12,9 12,0 13,2 18,1 15,8 11,3 32 17 45 25 NW 20 4 -
17.06.2018 18:00:00 13,2 12,1 13,2 18,9 15,6 11,3 22 12 50 27 W 30 1 -
17.06.2018 17:00:00 16,1 13,1 16,9 19,4 15,4 11,3 20 11 30 16 W 35 9 -
17.06.2018 16:00:00 14,0 12,7 14,3 19,6 15,2 11,3 18 10 33 18 W 30 1 -
17.06.2018 15:00:00 15,9 12,0 16,9 20,7 14,8 11,3 25 14 39 21 WNW 45 13 -
17.06.2018 14:00:00 17,5 11,1 20,2 20,2 14,6 11,3 25 14 36 20 W 60 21 -
17.06.2018 13:00:00 16,2 10,4 18,9 18,5 14,4 11,3 13 7 19 10 S 80 3 -
17.06.2018 12:00:00 16,3 9,2 19,1 17,7 14,1 11,3 9 5 26 14 W 80 3 -
17.06.2018 11:00:00 16,8 8,6 18,7 17,5 14,0 11,3 9 5 24 13 W 70 23 -
17.06.2018 10:00:00 17,1 10,2 21,9 15,7 14,0 11,3 14 7 21 12 W 70 45 -
17.06.2018 09:00:00 15,3 9,6 15,6 14,2 14,0 11,3 16 9 26 14 W 60 28 -
17.06.2018 08:00:00 14,4 8,5 15,6 12,9 14,2 11,3 21 11 30 16 W 60 19 -
17.06.2018 07:00:00 13,8 7,1 13,3 12,4 14,3 11,3 22 12 27 15 SW 70 0 -
17.06.2018 06:00:00 13,5 7,1 12,3 12,2 14,5 11,3 23 13 25 14 SSW 60 0 -
17.06.2018 05:00:00 12,7 6,3 9,8 12,5 14,7 11,3 19 11 23 12 S 50 0 -
17.06.2018 04:00:00 13,6 6,4 12,0 13,0 14,9 11,3 21 11 26 14 S 50 0 -
17.06.2018 03:00:00 13,5 6,5 11,9 13,3 15,1 11,3 22 12 24 13 S 50 0 -
17.06.2018 02:00:00 13,6 6,8 12,0 13,6 15,3 11,3 21 12 23 13 S 50 0 -
17.06.2018 01:00:00 13,6 6,7 11,9 14,1 15,5 11,3 19 11 21 12 S 50 0 -
17.06.2018 00:00:00 14,0 7,2 12,6 14,5 15,6 11,3 12 7 18 10 SE 50 0 -
16.06.2018 23:00:00 14,0 7,3 12,8 15,2 15,8 11,3 13 7 17 9 ESE 50 0 -
16.06.2018 22:00:00 13,9 7,9 12,3 15,9 15,8 11,3 12 6 14 7 SE 50 0 -
16.06.2018 21:00:00 14,1 8,5 13,0 16,9 15,9 11,3 12 6 14 8 ESE 50 0 -
16.06.2018 20:00:00 14,6 8,4 13,3 18,0 15,9 11,3 11 6 14 7 ESE 50 6 -
16.06.2018 19:00:00 15,5 8,6 15,5 18,6 15,8 11,3 6 4 16 9 SE 50 0 -
16.06.2018 18:00:00 15,5 8,4 15,6 19,3 15,6 11,3 14 7 19 11 ESE 50 0 -
16.06.2018 17:00:00 15,7 8,5 16,1 20,1 15,4 11,3 12 6 18 10 E 50 1 -
16.06.2018 16:00:00 16,0 6,8 17,4 21,1 15,0 11,3 11 6 19 10 SE 50 3 -
16.06.2018 15:00:00 16,4 8,3 18,2 21,7 14,7 11,3 13 7 22 12 E 45 28 -
16.06.2018 14:00:00 15,5 8,0 17,4 20,5 14,2 11,3 14 8 26 14 ESE 50 0 -
16.06.2018 13:00:00 15,6 7,7 17,3 22,0 13,7 11,3 18 10 33 18 E 50 37 -
16.06.2018 12:00:00 17,1 8,3 22,2 21,3 13,3 11,3 19 11 32 17 E 45 60 -
16.06.2018 11:00:00 16,7 7,7 21,7 18,4 13,0 11,3 19 10 29 15 E 45 53 -
16.06.2018 10:00:00 15,8 7,4 19,4 16,1 12,9 11,3 14 8 22 12 E 40 56 -
16.06.2018 09:00:00 14,2 9,1 16,3 13,7 12,9 11,3 10 5 15 8 E 40 17 -
16.06.2018 08:00:00 12,7 6,7 13,6 12,4 13,0 11,3 11 6 13 7 ESE 35 11 -
16.06.2018 07:00:00 12,4 7,1 12,7 11,3 13,1 11,3 9 5 16 9 ESE 30 26 -
16.06.2018 06:00:00 11,1 6,7 10,4 11,0 13,3 11,3 16 9 19 10 ESE 30 0 -
16.06.2018 05:00:00 10,6 7,8 9,9 11,2 13,4 11,3 14 8 19 10 ESE 30 0 -
16.06.2018 04:00:00 10,6 8,2 10,0 11,4 13,6 11,3 13 7 21 11 ESE 30 0 -
16.06.2018 03:00:00 10,7 8,1 10,1 11,5 13,8 11,3 16 9 22 12 ESE 30 0 -
16.06.2018 02:00:00 10,9 8,0 10,2 11,6 14,0 11,4 14 7 17 9 ESE 30 0 -
16.06.2018 01:00:00 10,9 8,0 10,0 11,6 14,2 11,4 15 8 18 10 E 30 0 -
16.06.2018 00:00:00 10,6 8,2 8,4 12,0 14,5 11,4 10 6 13 7 ENE 30 0 -
15.06.2018 23:00:00 10,3 9,2 9,2 12,9 14,6 11,4 13 7 19 10 ENE 30 0 -
15.06.2018 22:00:00 10,5 9,3 9,4 14,1 14,7 11,4 14 8 20 11 N 30 0 -
15.06.2018 21:00:00 11,5 9,3 10,4 15,5 14,7 11,4 14 7 17 9 N 30 0 -
15.06.2018 20:00:00 12,3 9,4 12,0 16,9 14,6 11,4 12 7 17 9 N 26 26 -
15.06.2018 19:00:00 13,3 9,7 14,2 17,3 14,5 11,4 13 7 20 11 N 30 10 -
15.06.2018 18:00:00 13,2 9,2 14,1 18,1 14,2 11,4 16 8 19 11 N 35 0 -
15.06.2018 17:00:00 14,6 6,5 16,8 19,5 13,9 11,4 9 5 17 9 N 35 6 -
15.06.2018 16:00:00 14,0 8,6 16,2 19,4 13,6 11,4 11 6 23 12 N 30 11 -
15.06.2018 15:00:00 14,0 7,7 16,4 19,2 13,2 11,4 12 7 20 11 NNW 30 16 -
15.06.2018 14:00:00 13,7 8,1 17,2 18,6 12,8 11,4 15 8 26 14 N 30 10 -
15.06.2018 13:00:00 13,4 7,7 16,0 19,0 12,3 11,4 14 8 23 12 NW 28 30 -
15.06.2018 12:00:00 13,1 7,1 18,2 17,6 11,9 11,4 12 6 19 11 N 28 13 -
15.06.2018 11:00:00 13,3 7,0 20,2 17,7 11,6 11,5 9 5 23 12 N 25 60 -
15.06.2018 10:00:00 12,0 8,2 17,6 14,3 11,5 11,5 13 7 22 12 N 20 60 -
15.06.2018 09:00:00 10,4 7,1 13,6 11,6 11,5 11,5 11 6 19 10 N 18 60 -
15.06.2018 08:00:00 9,4 7,1 11,8 9,2 11,7 11,5 12 7 23 12 N 22 54 -
15.06.2018 07:00:00 7,7 6,8 7,7 7,9 11,9 11,5 17 9 24 13 NNW 35 60 -
15.06.2018 06:00:00 6,6 6,0 5,5 7,7 12,1 11,5 20 11 32 17 WNW 50 17 -
15.06.2018 05:00:00 7,0 5,7 5,6 8,1 12,4 11,5 27 14 34 18 WNW 60 0 -
15.06.2018 04:00:00 7,3 5,7 5,9 8,5 12,6 11,5 24 13 34 19 WNW 70 0 -
15.06.2018 03:00:00 7,4 5,9 6,3 8,7 12,9 11,5 28 15 35 19 WNW 70 0 -
15.06.2018 02:00:00 7,3 5,8 6,0 9,1 13,2 11,5 29 16 40 22 WNW 70 0 -
15.06.2018 01:00:00 7,1 5,4 6,0 9,7 13,5 11,6 35 19 42 23 W 70 0 -
15.06.2018 00:00:00 7,4 5,7 6,0 10,5 13,7 11,6 30 16 34 18 W 70 0 -
14.06.2018 23:00:00 7,6 6,1 6,2 11,6 13,9 11,6 29 16 33 18 W 60 0 -
14.06.2018 22:00:00 7,6 6,3 6,2 13,0 13,9 11,6 25 14 27 15 WSW 60 0 -
14.06.2018 21:00:00 9,1 6,6 7,0 15,1 13,8 11,6 16 8 21 11 WSW 60 52 -
14.06.2018 20:00:00 11,1 6,7 9,7 17,6 13,5 11,6 18 10 25 14 WSW 55 55 -
14.06.2018 19:00:00 11,3 6,6 12,3 18,6 13,2 11,6 14 7 27 14 SW 45 44 -
14.06.2018 18:00:00 11,1 6,9 12,6 19,0 12,8 11,6 11 6 22 12 SSW 35 34 -
14.06.2018 17:00:00 12,3 7,6 16,4 18,3 12,4 11,6 16 9 23 13 WSW 35 27 -
14.06.2018 16:00:00 10,7 7,5 14,7 17,4 11,9 11,6 13 7 19 11 S 35 5 -
14.06.2018 15:00:00 10,3 6,8 13,8 18,2 11,5 11,6 10 5 18 10 S 35 31 -
14.06.2018 14:00:00 10,1 6,0 14,2 15,4 11,2 11,7 8 4 19 11 WSW 35 9 -
14.06.2018 13:00:00 8,1 5,3 10,1 13,8 11,0 11,7 10 6 16 9 WSW 30 0 -
14.06.2018 12:00:00 7,7 5,6 9,6 12,6 10,9 11,7 10 6 16 9 W 23 0 -
14.06.2018 11:00:00 7,1 6,2 8,8 10,9 10,9 11,7 9 5 18 10 W 20 0 -
14.06.2018 10:00:00 5,6 4,8 6,5 9,4 10,9 11,7 10 5 19 11 WNW 14 0 -
14.06.2018 09:00:00 5,4 5,3 6,2 8,5 11,0 11,7 13 7 21 11 WNW 4,0 0 -
14.06.2018 08:00:00 5,0 4,9 5,4 8,1 11,1 11,7 13 7 24 13 WNW 4,0 0 -
14.06.2018 07:00:00 5,2 5,1 5,4 8,0 11,2 11,7 16 9 28 15 WNW 0,1 0 -
14.06.2018 06:00:00 5,4 5,3 5,5 8,1 11,3 11,7 18 10 25 13 NW 0,1 0 -
14.06.2018 05:00:00 5,5 5,5 5,6 8,1 11,4 11,7 19 11 30 16 NW 0,1 0 -
14.06.2018 04:00:00 5,7 5,7 5,7 8,2 11,5 11,7 23 12 39 21 NW 0,1 0 -
14.06.2018 03:00:00 5,6 5,5 5,7 8,3 11,7 11,7 27 15 37 20 NW 0,1 0 -
14.06.2018 02:00:00 5,8 5,8 5,9 8,4 11,8 11,7 26 14 35 19 NW 0,1 0 -
14.06.2018 01:00:00 5,8 5,7 5,8 8,5 12,0 11,7 26 14 40 21 NW 0,1 0 -
14.06.2018 00:00:00 5,8 5,8 5,8 8,7 12,1 11,7 29 16 44 24 NW 0,1 0 -
13.06.2018 23:00:00 5,8 5,7 5,8 8,9 12,3 11,7 32 18 49 26 NW 0,1 0 -
13.06.2018 22:00:00 6,0 5,9 6,0 9,2 12,4 11,7 32 17 43 23 NW 0,1 0 -
13.06.2018 21:00:00 5,9 5,9 6,0 9,6 12,5 11,7 31 17 47 26 NW 0,1 0 -
13.06.2018 20:00:00 5,9 5,8 6,1 10,2 12,6 11,8 39 21 50 27 NW 0,1 0 -

tt = Température de l'air
td = dewpoint
tt 5cm = Température de l'air 5cm
tt -5cm = Température de l'air -5cm
tt -20cm = Température de l'air -20cm
tt -100cm = Température de l'air -100cm
ff = Vitesse du vent
fx = gusts
dd = Direction du vent
vv = visibility
sd = Ensoleillement
rr = Quantités de précipitations

stations d'obs. à proximité